createdAt,value
2023-04-27T00:01:15.905Z,5.00
2023-04-27T00:04:07.674Z,5.00
2023-04-27T00:06:55.246Z,5.00
2023-04-27T00:09:42.667Z,4.90
2023-04-27T00:12:30.196Z,4.90
2023-04-27T00:15:17.724Z,4.80
2023-04-27T00:18:05.476Z,4.80
2023-04-27T00:20:53.073Z,4.80
2023-04-27T00:23:40.887Z,4.90
2023-04-27T00:26:28.411Z,4.90
2023-04-27T00:29:16.022Z,4.90
2023-04-27T00:32:03.833Z,4.90
2023-04-27T00:34:52.016Z,4.90
2023-04-27T00:37:39.575Z,4.90
2023-04-27T00:40:27.073Z,5.00
2023-04-27T00:43:14.899Z,5.40
2023-04-27T00:46:05.262Z,5.70
2023-04-27T00:48:52.816Z,5.90
2023-04-27T00:51:40.286Z,6.00
2023-04-27T00:54:27.984Z,6.10
2023-04-27T00:57:16.450Z,6.20
2023-04-27T01:00:07.365Z,6.30
2023-04-27T01:02:56.584Z,6.30
2023-04-27T01:05:44.524Z,6.30
2023-04-27T01:08:32.080Z,6.30
2023-04-27T01:11:19.595Z,6.20
2023-04-27T01:14:08.205Z,6.20
2023-04-27T01:16:55.898Z,6.10
2023-04-27T01:19:45.093Z,6.00
2023-04-27T01:22:32.542Z,5.90
2023-04-27T01:25:20.339Z,5.90
2023-04-27T01:28:07.902Z,5.80
2023-04-27T01:30:55.763Z,5.80
2023-04-27T01:33:43.814Z,5.70
2023-04-27T01:36:32.432Z,5.70
2023-04-27T01:39:19.950Z,5.60
2023-04-27T01:42:07.458Z,5.60
2023-04-27T01:44:54.892Z,5.50
2023-04-27T01:47:42.392Z,5.50
2023-04-27T01:50:29.992Z,5.50
2023-04-27T01:53:17.442Z,5.50
2023-04-27T01:56:07.123Z,5.50
2023-04-27T01:58:54.780Z,5.50
2023-04-27T02:01:42.336Z,5.50
2023-04-27T02:04:30.040Z,5.50
2023-04-27T02:07:17.622Z,5.50
2023-04-27T02:10:05.918Z,5.50
2023-04-27T02:12:53.398Z,5.50
2023-04-27T02:15:41.097Z,5.50
2023-04-27T02:18:28.963Z,5.50
2023-04-27T02:21:16.924Z,5.50
2023-04-27T02:24:04.601Z,5.50
2023-04-27T02:26:52.225Z,5.50
2023-04-27T02:29:39.699Z,5.50
2023-04-27T02:32:27.845Z,5.50
2023-04-27T02:35:15.614Z,5.50
2023-04-27T02:38:03.062Z,5.60
2023-04-27T02:40:57.612Z,5.50
2023-04-27T02:43:45.224Z,5.50
2023-04-27T02:46:32.874Z,5.50
2023-04-27T02:49:21.040Z,5.40
2023-04-27T02:52:09.185Z,5.40
2023-04-27T02:54:57.332Z,5.40
2023-04-27T02:57:44.806Z,5.40
2023-04-27T03:00:33.272Z,5.30
2023-04-27T03:03:21.034Z,5.40
2023-04-27T03:06:08.583Z,5.40
2023-04-27T03:08:56.180Z,5.40
2023-04-27T03:11:43.715Z,5.40
2023-04-27T03:14:31.557Z,5.30
2023-04-27T03:17:19.237Z,5.30
2023-04-27T03:20:10.309Z,5.30
2023-04-27T03:22:57.832Z,5.30
2023-04-27T03:25:45.483Z,5.30
2023-04-27T03:28:33.069Z,5.30
2023-04-27T03:31:20.642Z,5.40
2023-04-27T03:34:08.322Z,5.30
2023-04-27T03:36:56.383Z,5.30
2023-04-27T03:39:45.284Z,5.30
2023-04-27T03:42:32.762Z,5.30
2023-04-27T03:45:22.435Z,5.30
2023-04-27T03:48:09.938Z,5.30
2023-04-27T03:50:57.477Z,5.30
2023-04-27T03:53:44.963Z,5.30
2023-04-27T03:56:32.473Z,5.30
2023-04-27T03:59:19.991Z,5.30
2023-04-27T04:02:08.802Z,5.30
2023-04-27T04:04:56.764Z,5.30
2023-04-27T04:07:44.622Z,5.30
2023-04-27T04:10:32.250Z,5.30
2023-04-27T04:13:19.698Z,5.30
2023-04-27T04:16:10.247Z,5.30
2023-04-27T04:18:57.746Z,5.30
2023-04-27T04:21:45.243Z,5.30
2023-04-27T04:24:33.074Z,5.40
2023-04-27T04:27:20.568Z,5.40
2023-04-27T04:30:09.017Z,5.50
2023-04-27T04:32:56.565Z,5.50
2023-04-27T04:35:44.382Z,5.60
2023-04-27T04:38:33.294Z,5.60
2023-04-27T04:41:20.784Z,5.70
2023-04-27T04:44:08.292Z,5.80
2023-04-27T04:46:56.278Z,5.80
2023-04-27T04:49:43.834Z,5.90
2023-04-27T04:52:31.382Z,5.90
2023-04-27T04:55:19.318Z,6.00
2023-04-27T04:58:07.013Z,6.10
2023-04-27T05:00:54.472Z,6.20
2023-04-27T05:03:42.028Z,6.20
2023-04-27T05:06:29.720Z,6.30
2023-04-27T05:09:17.204Z,6.40
2023-04-27T05:12:05.877Z,6.50
2023-04-27T05:14:53.923Z,6.50
2023-04-27T05:17:41.595Z,6.60
2023-04-27T05:20:29.088Z,6.60
2023-04-27T05:23:16.590Z,6.70
2023-04-27T05:26:16.027Z,6.70
2023-04-27T05:29:03.549Z,6.80
2023-04-27T05:31:51.010Z,6.90
2023-04-27T05:34:38.583Z,7.00
2023-04-27T05:37:26.034Z,7.20
2023-04-27T05:40:15.867Z,7.20
2023-04-27T05:43:05.702Z,7.20
2023-04-27T05:45:54.370Z,7.40
2023-04-27T05:48:41.896Z,7.50
2023-04-27T05:51:29.436Z,7.60
2023-04-27T05:54:17.123Z,7.70
2023-04-27T05:57:04.605Z,7.80
2023-04-27T05:59:53.652Z,7.90
2023-04-27T06:02:41.411Z,8.10
2023-04-27T06:05:29.168Z,8.20
2023-04-27T06:08:16.762Z,8.30
2023-04-27T06:11:04.393Z,8.40
2023-04-27T06:13:51.992Z,8.50
2023-04-27T06:16:41.307Z,8.60
2023-04-27T06:19:28.883Z,8.70
2023-04-27T06:22:16.389Z,8.80
2023-04-27T06:25:05.498Z,8.80
2023-04-27T06:27:53.092Z,8.90
2023-04-27T06:30:40.683Z,9.00
2023-04-27T06:33:28.134Z,9.20
2023-04-27T06:36:15.657Z,9.30
2023-04-27T06:39:03.213Z,9.40
2023-04-27T06:41:50.739Z,9.60
2023-04-27T06:44:38.873Z,9.80
2023-04-27T06:47:26.511Z,9.80
2023-04-27T06:50:16.066Z,9.90
2023-04-27T06:53:03.633Z,10.00
2023-04-27T06:55:51.317Z,10.00
2023-04-27T06:58:38.804Z,10.40
2023-04-27T07:01:26.397Z,10.50
2023-04-27T07:04:14.108Z,10.50
2023-04-27T07:07:01.598Z,10.60
2023-04-27T07:09:49.076Z,10.70
2023-04-27T07:12:38.629Z,10.90
2023-04-27T07:15:26.840Z,10.80
2023-04-27T07:18:15.713Z,10.70
2023-04-27T07:21:03.277Z,10.90
2023-04-27T07:23:50.866Z,10.70
2023-04-27T07:26:38.350Z,10.70
2023-04-27T07:29:28.549Z,10.80
2023-04-27T07:32:16.755Z,10.90
2023-04-27T07:35:06.059Z,11.00
2023-04-27T07:37:53.561Z,11.20
2023-04-27T07:40:42.675Z,11.50
2023-04-27T07:43:32.641Z,11.70
2023-04-27T07:46:20.942Z,11.70
2023-04-27T07:49:08.485Z,11.80
2023-04-27T07:51:56.492Z,11.80
2023-04-27T07:54:43.913Z,12.00
2023-04-27T07:57:31.835Z,12.10
2023-04-27T08:00:20.643Z,12.20
2023-04-27T08:03:08.647Z,12.30
2023-04-27T08:05:56.723Z,12.40
2023-04-27T08:08:44.606Z,12.60
2023-04-27T08:11:32.577Z,12.90
2023-04-27T08:14:20.104Z,12.90
2023-04-27T08:17:07.699Z,12.90
2023-04-27T08:19:55.376Z,13.10
2023-04-27T08:22:44.169Z,13.30
2023-04-27T08:25:32.822Z,13.40
2023-04-27T08:28:20.360Z,13.40
2023-04-27T08:31:08.045Z,13.50
2023-04-27T08:33:58.754Z,13.70
2023-04-27T08:36:46.354Z,13.80
2023-04-27T08:39:33.972Z,13.80
2023-04-27T08:42:21.766Z,14.00
2023-04-27T08:45:09.982Z,14.20
2023-04-27T08:47:57.514Z,14.10
2023-04-27T08:50:46.041Z,14.20
2023-04-27T08:53:34.120Z,14.40
2023-04-27T08:56:25.272Z,14.40
2023-04-27T08:59:17.881Z,14.70
2023-04-27T09:02:06.214Z,14.60
2023-04-27T09:04:54.044Z,14.90
2023-04-27T09:07:41.870Z,15.10
2023-04-27T09:10:29.854Z,15.10
2023-04-27T09:13:17.934Z,15.10
2023-04-27T09:16:06.034Z,15.50
2023-04-27T09:18:53.943Z,15.70
2023-04-27T09:21:43.354Z,15.70
2023-04-27T09:24:30.972Z,15.50
2023-04-27T09:27:22.322Z,15.40
2023-04-27T09:30:14.878Z,15.40
2023-04-27T09:33:02.829Z,15.20
2023-04-27T09:35:51.150Z,14.90
2023-04-27T09:38:38.923Z,14.80
2023-04-27T09:41:28.339Z,14.70
2023-04-27T09:44:17.282Z,14.70
2023-04-27T09:47:06.434Z,15.10
2023-04-27T09:49:53.917Z,15.30
2023-04-27T09:52:42.273Z,15.50
2023-04-27T09:55:41.185Z,15.00
2023-04-27T09:59:07.902Z,15.10
2023-04-27T10:02:07.308Z,15.00
2023-04-27T10:05:36.033Z,15.20
2023-04-27T10:08:23.690Z,15.00
2023-04-27T10:11:23.089Z,14.90
2023-04-27T10:14:18.466Z,14.50
2023-04-27T10:17:11.961Z,14.70
2023-04-27T10:20:09.974Z,14.90
2023-04-27T10:22:58.773Z,15.20
2023-04-27T10:25:47.580Z,15.70
2023-04-27T10:28:40.387Z,16.10
2023-04-27T10:31:29.519Z,16.40
2023-04-27T10:34:21.302Z,16.20
2023-04-27T10:37:12.580Z,16.00
2023-04-27T10:40:08.355Z,16.00
2023-04-27T10:42:56.970Z,15.90
2023-04-27T10:45:46.311Z,16.30
2023-04-27T10:48:34.086Z,16.00
2023-04-27T10:51:21.652Z,16.10
2023-04-27T10:54:09.529Z,16.00
2023-04-27T10:57:10.983Z,15.80
2023-04-27T10:59:58.761Z,16.00
2023-04-27T11:02:46.415Z,16.20
2023-04-27T11:05:33.984Z,16.20
2023-04-27T11:08:21.502Z,16.30
2023-04-27T11:11:16.994Z,16.30
2023-04-27T11:14:04.602Z,16.40
2023-04-27T11:16:52.216Z,16.70
2023-04-27T11:19:49.343Z,16.50
2023-04-27T11:22:47.107Z,16.30
2023-04-27T11:25:34.810Z,16.00
2023-04-27T11:28:24.571Z,15.90
2023-04-27T11:31:12.506Z,15.40
2023-04-27T11:34:00.375Z,14.70
2023-04-27T11:37:17.499Z,14.50
2023-04-27T11:40:08.701Z,14.70
2023-04-27T11:43:03.233Z,14.70
2023-04-27T11:45:50.850Z,14.90
2023-04-27T11:48:40.060Z,15.70
2023-04-27T11:51:30.785Z,16.20
2023-04-27T11:54:18.282Z,16.70
2023-04-27T11:57:08.318Z,16.80
2023-04-27T12:00:01.549Z,16.70
2023-04-27T12:02:49.266Z,16.90
2023-04-27T12:05:47.427Z,17.00
2023-04-27T12:08:35.003Z,17.10
2023-04-27T12:11:22.948Z,16.80
2023-04-27T12:14:10.819Z,16.70
2023-04-27T12:16:58.369Z,16.80
2023-04-27T12:19:46.002Z,16.80
2023-04-27T12:22:33.498Z,16.10
2023-04-27T12:25:21.630Z,16.40
2023-04-27T12:28:09.097Z,16.50
2023-04-27T12:30:56.750Z,16.50
2023-04-27T12:33:44.337Z,16.50
2023-04-27T12:36:32.834Z,16.60
2023-04-27T12:39:25.444Z,16.60
2023-04-27T12:42:13.057Z,16.40
2023-04-27T12:45:00.537Z,16.50
2023-04-27T12:48:01.669Z,16.20
2023-04-27T12:50:50.588Z,16.30
2023-04-27T12:53:38.089Z,16.30
2023-04-27T12:56:25.739Z,16.50
2023-04-27T12:59:13.373Z,16.80
2023-04-27T13:02:06.216Z,16.60
2023-04-27T13:04:53.824Z,16.30
2023-04-27T13:07:41.359Z,16.40
2023-04-27T13:10:29.728Z,16.60
2023-04-27T13:13:17.472Z,16.80
2023-04-27T13:16:05.058Z,17.10
2023-04-27T13:18:53.836Z,17.40
2023-04-27T13:21:41.564Z,17.60
2023-04-27T13:24:29.500Z,17.60
2023-04-27T13:27:17.360Z,17.50
2023-04-27T13:30:05.673Z,17.40
2023-04-27T13:32:53.474Z,17.60
2023-04-27T13:35:42.076Z,17.30
2023-04-27T13:38:29.541Z,17.30
2023-04-27T13:41:17.199Z,17.40
2023-04-27T13:44:04.795Z,17.40
2023-04-27T13:46:52.334Z,17.30
2023-04-27T13:49:39.876Z,17.50
2023-04-27T13:52:27.346Z,17.20
2023-04-27T13:55:14.821Z,16.80
2023-04-27T13:58:02.411Z,16.70
2023-04-27T14:00:52.161Z,16.60
2023-04-27T14:03:41.882Z,16.90
2023-04-27T14:06:32.190Z,17.20
2023-04-27T14:09:19.703Z,17.20
2023-04-27T14:12:08.711Z,17.40
2023-04-27T14:14:58.390Z,17.50
2023-04-27T14:17:46.089Z,17.70
2023-04-27T14:20:35.263Z,17.60
2023-04-27T14:23:22.801Z,17.50
2023-04-27T14:26:10.383Z,17.60
2023-04-27T14:28:58.877Z,17.60
2023-04-27T14:31:48.322Z,17.60
2023-04-27T14:34:36.714Z,17.50
2023-04-27T14:37:24.279Z,17.70
2023-04-27T14:40:12.455Z,17.60
2023-04-27T14:43:00.327Z,17.50
2023-04-27T14:45:53.946Z,17.60
2023-04-27T14:48:43.177Z,17.70
2023-04-27T14:51:32.620Z,17.80
2023-04-27T14:54:20.349Z,17.80
2023-04-27T14:57:08.633Z,17.70
2023-04-27T14:59:57.029Z,17.70
2023-04-27T15:02:44.646Z,17.70
2023-04-27T15:05:32.233Z,17.70
2023-04-27T15:08:20.077Z,17.80
2023-04-27T15:11:10.071Z,17.60
2023-04-27T15:13:57.659Z,17.70
2023-04-27T15:16:45.261Z,17.80
2023-04-27T15:19:32.888Z,17.80
2023-04-27T15:22:21.042Z,17.90
2023-04-27T15:25:09.272Z,17.90
2023-04-27T15:27:56.960Z,17.90
2023-04-27T15:30:45.657Z,17.90
2023-04-27T15:33:33.345Z,17.80
2023-04-27T15:36:23.046Z,17.70
2023-04-27T15:39:10.720Z,17.60
2023-04-27T15:41:59.710Z,17.60
2023-04-27T15:44:47.342Z,17.50
2023-04-27T15:47:34.887Z,17.30
2023-04-27T15:50:22.916Z,17.20
2023-04-27T15:53:10.396Z,17.00
2023-04-27T15:55:57.867Z,16.90
2023-04-27T15:58:46.356Z,16.80
2023-04-27T16:01:33.903Z,16.80
2023-04-27T16:04:21.491Z,16.90
2023-04-27T16:07:09.297Z,16.60
2023-04-27T16:09:57.926Z,16.60
2023-04-27T16:12:45.527Z,16.60
2023-04-27T16:15:33.039Z,16.60
2023-04-27T16:18:20.495Z,16.60
2023-04-27T16:21:07.992Z,16.50
2023-04-27T16:23:58.317Z,16.50
2023-04-27T16:26:46.886Z,16.70
2023-04-27T16:29:34.627Z,16.60
2023-04-27T16:32:22.335Z,16.60
2023-04-27T16:35:10.151Z,16.30
2023-04-27T16:37:57.747Z,16.10
2023-04-27T16:40:45.619Z,15.80
2023-04-27T16:43:34.105Z,15.60
2023-04-27T16:46:22.386Z,15.50
2023-04-27T16:49:10.772Z,15.40
2023-04-27T16:51:58.301Z,15.40
2023-04-27T16:54:46.144Z,15.50
2023-04-27T16:57:33.709Z,15.50
2023-04-27T17:00:21.462Z,15.50
2023-04-27T17:03:09.807Z,15.50
2023-04-27T17:05:57.369Z,15.40
2023-04-27T17:08:44.860Z,15.40
2023-04-27T17:11:32.386Z,15.40
2023-04-27T17:14:20.914Z,15.40
2023-04-27T17:17:10.691Z,15.40
2023-04-27T17:19:58.424Z,15.30
2023-04-27T17:22:46.487Z,15.30
2023-04-27T17:25:34.210Z,15.20
2023-04-27T17:28:22.612Z,15.10
2023-04-27T17:31:10.120Z,14.90
2023-04-27T17:33:57.683Z,14.80
2023-04-27T17:36:46.200Z,14.70
2023-04-27T17:39:33.616Z,14.60
2023-04-27T17:42:21.235Z,14.50
2023-04-27T17:45:09.623Z,14.30
2023-04-27T17:47:57.257Z,14.20
2023-04-27T17:50:44.752Z,14.00
2023-04-27T17:53:32.215Z,13.90
2023-04-27T17:56:19.672Z,13.80
2023-04-27T17:59:08.006Z,13.60
2023-04-27T18:01:55.853Z,13.40
2023-04-27T18:04:43.589Z,13.30
2023-04-27T18:07:31.119Z,13.00
2023-04-27T18:10:18.625Z,12.80
2023-04-27T18:13:06.192Z,12.60
2023-04-27T18:15:53.719Z,12.40
2023-04-27T18:18:41.528Z,12.20
2023-04-27T18:21:30.042Z,11.90
2023-04-27T18:24:17.626Z,11.80
2023-04-27T18:27:05.634Z,11.60
2023-04-27T18:29:53.400Z,11.40
2023-04-27T18:32:40.925Z,11.20
2023-04-27T18:35:28.602Z,11.00
2023-04-27T18:38:16.167Z,10.90
2023-04-27T18:41:04.883Z,10.70
2023-04-27T18:43:52.739Z,10.50
2023-04-27T18:46:40.246Z,10.40
2023-04-27T18:49:27.808Z,10.20
2023-04-27T18:52:15.435Z,10.00
2023-04-27T18:55:03.908Z,9.90
2023-04-27T18:57:51.407Z,9.80
2023-04-27T19:00:39.087Z,9.60
2023-04-27T19:03:26.964Z,9.50
2023-04-27T19:06:15.763Z,9.40
2023-04-27T19:09:03.315Z,9.30
2023-04-27T19:12:01.987Z,9.30
2023-04-27T19:14:52.049Z,9.20
2023-04-27T19:17:40.806Z,9.10
2023-04-27T19:20:28.387Z,9.00
2023-04-27T19:23:19.238Z,8.90
2023-04-27T19:26:13.261Z,8.90
2023-04-27T19:29:01.434Z,8.90
2023-04-27T19:31:48.949Z,8.80
2023-04-27T19:34:36.998Z,8.80
2023-04-27T19:37:25.147Z,8.80
2023-04-27T19:40:13.447Z,8.80
2023-04-27T19:43:01.305Z,8.70
2023-04-27T19:45:51.758Z,8.70
2023-04-27T19:48:39.244Z,8.60
2023-04-27T19:51:27.421Z,8.60
2023-04-27T19:54:15.056Z,8.60
2023-04-27T19:57:03.979Z,8.60
2023-04-27T19:59:51.542Z,8.60
2023-04-27T20:02:39.347Z,8.60
2023-04-27T20:05:27.573Z,8.60
2023-04-27T20:08:15.276Z,8.60
2023-04-27T20:11:02.819Z,8.60
2023-04-27T20:13:50.262Z,8.60
2023-04-27T20:16:37.922Z,8.60
2023-04-27T20:19:25.525Z,8.50
2023-04-27T20:22:13.429Z,8.50
2023-04-27T20:25:00.887Z,8.40
2023-04-27T20:27:48.645Z,8.40
2023-04-27T20:30:36.664Z,8.30
2023-04-27T20:33:24.162Z,8.20
2023-04-27T20:36:17.318Z,8.20
2023-04-27T20:39:05.680Z,8.10
2023-04-27T20:41:53.112Z,8.00
2023-04-27T20:44:40.584Z,8.00
2023-04-27T20:47:28.021Z,7.90
2023-04-27T20:50:15.668Z,7.80
2023-04-27T20:53:03.214Z,7.80
2023-04-27T20:55:50.809Z,7.70
2023-04-27T20:58:38.268Z,7.70
2023-04-27T21:01:26.751Z,7.70
2023-04-27T21:04:14.582Z,7.70
2023-04-27T21:07:02.719Z,7.70
2023-04-27T21:09:50.348Z,7.60
2023-04-27T21:12:38.009Z,7.60
2023-04-27T21:15:25.647Z,7.60
2023-04-27T21:18:22.357Z,7.50
2023-04-27T21:21:16.318Z,7.50
2023-04-27T21:24:08.175Z,7.50
2023-04-27T21:26:56.075Z,7.40
2023-04-27T21:29:43.615Z,7.30
2023-04-27T21:32:31.233Z,7.40
2023-04-27T21:35:18.880Z,7.40
2023-04-27T21:38:06.534Z,7.30
2023-04-27T21:40:53.970Z,7.20
2023-04-27T21:43:42.211Z,7.10
2023-04-27T21:46:29.799Z,7.20
2023-04-27T21:49:17.349Z,7.50
2023-04-27T21:52:05.163Z,7.60
2023-04-27T21:54:52.776Z,7.70
2023-04-27T21:57:40.273Z,7.70
2023-04-27T22:00:27.735Z,7.70
2023-04-27T22:03:17.873Z,7.60
2023-04-27T22:06:06.411Z,7.70
2023-04-27T22:08:54.240Z,7.90
2023-04-27T22:11:41.692Z,7.90
2023-04-27T22:14:31.416Z,7.90
2023-04-27T22:17:18.861Z,8.00
2023-04-27T22:20:12.748Z,8.00
2023-04-27T22:23:01.308Z,7.90
2023-04-27T22:25:48.785Z,8.00
2023-04-27T22:28:36.328Z,8.00
2023-04-27T22:31:25.049Z,8.00
2023-04-27T22:34:13.862Z,8.10
2023-04-27T22:37:02.773Z,8.20
2023-04-27T22:39:50.711Z,8.20
2023-04-27T22:42:38.264Z,8.30
2023-04-27T22:45:25.804Z,8.30
2023-04-27T22:48:13.305Z,8.20
2023-04-27T22:51:00.740Z,8.00
2023-04-27T22:53:49.569Z,8.00
2023-04-27T22:56:37.043Z,7.90
2023-04-27T22:59:24.950Z,7.90
2023-04-27T23:02:12.626Z,7.90
2023-04-27T23:05:00.224Z,7.80
2023-04-27T23:07:47.947Z,7.80
2023-04-27T23:10:38.944Z,7.60
2023-04-27T23:13:29.696Z,7.60
2023-04-27T23:16:17.329Z,7.70
2023-04-27T23:19:04.913Z,7.60
2023-04-27T23:21:52.484Z,7.60
2023-04-27T23:24:39.971Z,7.60
2023-04-27T23:27:29.045Z,7.60
2023-04-27T23:30:16.541Z,7.60
2023-04-27T23:33:04.148Z,7.50
2023-04-27T23:35:51.631Z,7.50
2023-04-27T23:38:39.172Z,7.40
2023-04-27T23:41:26.648Z,7.30
2023-04-27T23:44:14.493Z,7.10
2023-04-27T23:47:02.340Z,6.90
2023-04-27T23:49:49.832Z,6.70
2023-04-27T23:52:37.382Z,6.80
2023-04-27T23:55:24.930Z,6.80
2023-04-27T23:58:12.409Z,6.70
